Time;durP1;ratioP1;P1;durP2;ratioP2;P2;SDS_P1;SDS_P2;PMS_P1;PMS_P2;Temp;Humidity;BMP_temperature;BMP_pressure;BME280_temperature;BME280_humidity;BME280_pressure;Samples;Min_cycle;Max_cycle;Signal;HPM_P1;HPM_P2
2023/02/04 00:02:06;;;;;;;2.28;0.80;;;;;;;9.15;92.99;102639.59;5038762;28;20065;-45
2023/02/04 00:04:32;;;;;;;3.35;1.00;;;;;;;9.14;93.05;102632.41;5035594;28;20041;-47
2023/02/04 00:06:59;;;;;;;1.38;0.80;;;;;;;9.15;92.90;102628.53;5035659;28;20111;-44
2023/02/04 00:09:26;;;;;;;3.08;1.00;;;;;;;9.15;92.91;102628.53;5031705;28;20045;-44
2023/02/04 00:11:52;;;;;;;1.52;0.70;;;;;;;9.14;92.89;102629.63;5039065;28;20042;-49
2023/02/04 00:14:19;;;;;;;1.80;0.70;;;;;;;9.13;92.75;102633.50;5036972;28;20065;-47
2023/02/04 00:16:45;;;;;;;1.08;0.98;;;;;;;9.14;92.82;102635.16;5038335;28;20411;-44
2023/02/04 00:19:15;;;;;;;1.05;0.68;;;;;;;9.15;92.65;102631.31;5039400;28;20051;-49
2023/02/04 00:21:42;;;;;;;1.73;0.98;;;;;;;9.15;92.60;102634.06;5039000;28;20041;-44
2023/02/04 00:24:09;;;;;;;0.63;0.40;;;;;;;9.13;92.35;102627.97;5039890;28;20160;-45
2023/02/04 00:26:36;;;;;;;0.65;0.40;;;;;;;9.14;92.30;102635.16;5034679;28;20406;-44
2023/02/04 00:29:02;;;;;;;1.42;0.28;;;;;;;9.13;92.17;102633.50;5048849;28;20042;-48
2023/02/04 00:31:30;;;;;;;0.28;0.28;;;;;;;9.14;91.79;102634.34;5041012;28;20057;-47
2023/02/04 00:33:56;;;;;;;1.48;0.75;;;;;;;9.16;91.63;102637.63;5039019;28;20120;-44
2023/02/04 00:36:23;;;;;;;1.00;0.40;;;;;;;9.16;91.43;102635.69;5041291;28;20424;-44
2023/02/04 00:38:50;;;;;;;1.67;0.60;;;;;;;9.17;91.39;102640.13;5040712;28;20507;-45
2023/02/04 00:41:16;;;;;;;1.95;0.40;;;;;;;9.19;91.30;102637.88;5039589;28;20091;-45
2023/02/04 00:43:43;;;;;;;0.65;0.30;;;;;;;9.21;91.26;102634.03;5036189;28;20043;-44
2023/02/04 00:46:10;;;;;;;0.68;0.30;;;;;;;9.20;91.18;102630.41;5044581;28;20763;-44
2023/02/04 00:48:37;;;;;;;1.75;0.50;;;;;;;9.21;90.92;102634.03;5030839;28;20053;-45
2023/02/04 00:51:03;;;;;;;1.13;0.40;;;;;;;9.22;91.00;102630.94;5036986;28;20132;-44
2023/02/04 00:53:30;;;;;;;2.83;0.60;;;;;;;9.24;90.79;102630.69;5036267;28;20515;-44
2023/02/04 00:55:57;;;;;;;0.40;0.40;;;;;;;9.24;90.59;102630.69;5036711;28;20136;-44
2023/02/04 00:58:23;;;;;;;1.23;0.50;;;;;;;9.23;90.64;102627.09;5034082;28;20046;-45
2023/02/04 01:00:50;;;;;;;1.15;0.60;;;;;;;9.23;90.74;102631.78;5040044;28;20044;-50
2023/02/04 01:03:17;;;;;;;2.88;0.93;;;;;;;9.22;90.49;102625.44;5035019;28;20380;-44
2023/02/04 01:05:44;;;;;;;2.83;0.60;;;;;;;9.21;90.42;102629.31;5038794;28;20091;-44
2023/02/04 01:08:10;;;;;;;2.08;1.27;;;;;;;9.21;90.35;102628.50;5035773;28;20842;-44
2023/02/04 01:10:37;;;;;;;1.85;1.25;;;;;;;9.23;90.31;102632.63;5039568;28;20475;-44
2023/02/04 01:13:04;;;;;;;4.63;1.88;;;;;;;9.23;90.21;102626.25;5037565;28;20053;-44
2023/02/04 01:15:31;;;;;;;5.00;0.70;;;;;;;9.23;89.92;102637.31;5035373;28;20051;-48
2023/02/04 01:17:57;;;;;;;3.70;0.60;;;;;;;9.22;90.03;102636.47;5030548;28;20041;-47
2023/02/04 01:20:24;;;;;;;3.92;0.95;;;;;;;9.19;89.74;102629.59;5040452;28;20033;-44
2023/02/04 01:22:51;;;;;;;2.72;0.80;;;;;;;9.18;89.60;102636.25;5035824;28;20431;-44
2023/02/04 01:25:18;;;;;;;4.68;0.73;;;;;;;9.17;89.50;102633.75;5035861;28;20052;-44
2023/02/04 01:27:45;;;;;;;2.72;0.70;;;;;;;9.16;89.22;102627.41;5037444;28;20077;-49
2023/02/04 01:30:14;;;;;;;1.90;0.50;;;;;;;9.16;89.14;102632.94;5038164;28;20057;-45
2023/02/04 01:32:41;;;;;;;1.10;0.75;;;;;;;9.16;89.11;102632.94;5034028;28;20056;-43
2023/02/04 01:35:08;;;;;;;1.80;0.73;;;;;;;9.15;88.93;102634.06;5043219;28;20056;-44
2023/02/04 01:37:34;;;;;;;0.65;0.50;;;;;;;9.14;88.81;102635.16;5037805;28;20443;-44
2023/02/04 01:40:01;;;;;;;1.95;0.55;;;;;;;9.16;88.71;102634.88;5040828;28;20605;-44
2023/02/04 01:42:28;;;;;;;1.67;0.70;;;;;;;9.14;88.50;102637.94;5035450;28;20049;-44
2023/02/04 01:44:55;;;;;;;3.63;0.60;;;;;;;9.14;88.34;102640.69;5042464;28;20386;-44
2023/02/04 01:47:22;;;;;;;3.47;0.75;;;;;;;9.14;88.23;102639.88;5047046;28;20044;-44
2023/02/04 01:49:52;;;;;;;4.25;1.73;;;;;;;9.13;87.93;102641.78;5045734;28;20127;-44
2023/02/04 01:52:20;;;;;;;0.90;0.40;;;;;;;9.14;87.80;102634.34;5036155;28;20073;-46
2023/02/04 01:54:47;;;;;;;6.32;1.27;;;;;;;9.12;87.60;102637.41;5035199;28;21865;-48
2023/02/04 01:57:15;;;;;;;3.70;1.15;;;;;;;9.11;87.69;102641.28;5040426;28;20136;-44
2023/02/04 01:59:44;;;;;;;1.33;0.70;;;;;;;9.12;87.48;102642.94;5046201;28;20044;-45
2023/02/04 02:02:36;;;;;;;2.78;0.70;;;;;;;9.13;87.35;102641.00;5044250;28;20045;-46
2023/02/04 02:05:03;;;;;;;0.77;0.47;;;;;;;9.12;87.31;102642.94;5047465;28;20049;-46
2023/02/04 02:07:30;;;;;;;1.65;0.65;;;;;;;9.11;86.98;102635.75;5048237;28;20056;-51
2023/02/04 02:09:56;;;;;;;1.60;0.55;;;;;;;9.12;86.77;102639.34;5058488;28;20068;-44
2023/02/04 02:12:23;;;;;;;4.00;0.73;;;;;;;9.10;86.73;102642.41;5049573;28;20060;-45
2023/02/04 02:14:50;;;;;;;0.77;0.40;;;;;;;9.10;86.75;102639.63;5048330;28;20049;-48
2023/02/04 02:17:17;;;;;;;2.25;0.50;;;;;;;9.09;86.75;102640.75;5048006;28;20053;-44
2023/02/04 02:19:43;;;;;;;5.63;1.73;;;;;;;9.08;86.57;102641.84;5048293;28;20048;-46
2023/02/04 02:22:15;;;;;;;4.32;1.38;;;;;;;9.09;86.53;102643.50;5048237;28;20418;-45
2023/02/04 02:24:42;;;;;;;1.08;0.60;;;;;;;9.09;86.29;102640.75;5049713;28;20045;-50
2023/02/04 02:27:10;;;;;;;1.08;0.68;;;;;;;9.08;86.17;102654.84;5046700;28;20053;-47
2023/02/04 02:29:40;;;;;;;2.70;0.52;;;;;;;9.07;86.08;102644.91;5051466;28;20060;-44
2023/02/04 02:32:08;;;;;;;2.65;1.02;;;;;;;9.06;85.96;102646.84;5052476;28;20048;-44
2023/02/04 02:34:38;;;;;;;2.92;0.85;;;;;;;9.05;85.70;102653.47;5063330;28;20044;-47
2023/02/04 02:37:07;;;;;;;2.28;0.88;;;;;;;9.05;85.82;102642.41;5052322;28;20395;-43
2023/02/04 02:39:37;;;;;;;1.63;0.70;;;;;;;9.06;85.66;102654.28;5051755;28;20057;-44
2023/02/04 02:42:04;;;;;;;2.50;0.73;;;;;;;9.04;85.44;102645.47;5051788;28;20495;-47
2023/02/04 02:44:31;;;;;;;2.70;0.70;;;;;;;9.03;85.25;102647.41;5064835;28;20033;-45
2023/02/04 02:46:59;;;;;;;3.70;0.93;;;;;;;9.04;85.18;102649.06;5049960;28;20372;-44
2023/02/04 02:49:28;;;;;;;2.40;0.70;;;;;;;9.03;85.00;102650.19;5051342;28;20045;-48
2023/02/04 02:51:55;;;;;;;2.47;1.05;;;;;;;9.02;84.87;102658.75;5051613;28;20045;-47
2023/02/04 02:54:25;;;;;;;3.58;0.80;;;;;;;9.01;84.71;102657.94;5051717;28;20141;-44
2023/02/04 02:56:53;;;;;;;1.92;0.60;;;;;;;8.99;84.65;102648.28;5051537;28;20049;-46
2023/02/04 02:59:19;;;;;;;1.27;0.60;;;;;;;9.00;84.72;102659.03;5051299;28;20072;-45
2023/02/04 03:01:50;;;;;;;2.63;0.82;;;;;;;9.00;84.59;102647.19;5065036;23;20058;-44
2023/02/04 03:04:19;;;;;;;1.95;0.80;;;;;;;8.98;84.38;102641.94;5031397;28;20438;-44
2023/02/04 03:06:46;;;;;;;2.25;0.93;;;;;;;8.98;84.27;102641.09;5031525;28;20055;-45
2023/02/04 03:09:12;;;;;;;2.20;0.80;;;;;;;8.99;84.37;102645.53;5030876;28;20057;-45
2023/02/04 03:11:39;;;;;;;3.92;1.33;;;;;;;8.97;84.07;102640.31;5031665;28;20049;-44
2023/02/04 03:14:06;;;;;;;3.03;0.80;;;;;;;8.97;83.95;102645.00;5031220;28;20041;-44
2023/02/04 03:16:35;;;;;;;1.13;0.90;;;;;;;8.94;83.74;102645.56;5030508;28;20053;-49
2023/02/04 03:19:04;;;;;;;3.20;1.02;;;;;;;8.93;83.71;102630.09;5018478;28;20041;-45
2023/02/04 03:21:31;;;;;;;1.45;0.68;;;;;;;8.93;83.68;102638.38;5030862;28;20056;-44
2023/02/04 03:23:59;;;;;;;3.50;0.65;;;;;;;8.91;83.60;102633.16;5030001;28;20442;-44
2023/02/04 03:26:26;;;;;;;1.80;0.70;;;;;;;8.91;83.59;102624.88;5031146;28;20057;-44
2023/02/04 03:28:53;;;;;;;3.85;1.20;;;;;;;8.89;83.59;102632.63;5030836;28;20053;-45
2023/02/04 03:31:20;;;;;;;3.42;0.88;;;;;;;8.87;83.44;102623.78;5030352;28;20052;-44
2023/02/04 03:33:47;;;;;;;6.07;1.13;;;;;;;8.86;83.46;102630.44;5034931;28;20402;-44
2023/02/04 03:36:14;;;;;;;3.15;0.95;;;;;;;8.86;83.43;102629.59;5029782;28;20430;-45
2023/02/04 03:38:40;;;;;;;5.30;0.88;;;;;;;8.85;83.53;102637.06;5030560;28;20570;-44
2023/02/04 03:41:07;;;;;;;5.07;1.10;;;;;;;8.84;83.45;102632.63;5045989;28;20087;-45
2023/02/04 03:43:34;;;;;;;8.07;0.93;;;;;;;8.83;83.38;102632.94;5029337;28;20057;-50
2023/02/04 03:46:01;;;;;;;3.17;0.98;;;;;;;8.82;83.44;102643.16;5021918;28;20506;-44
2023/02/04 03:48:27;;;;;;;1.98;0.90;;;;;;;8.81;83.28;102633.25;5030545;28;20137;-47
2023/02/04 03:50:54;;;;;;;8.25;1.42;;;;;;;8.82;83.25;102640.41;5030926;28;20041;-45
2023/02/04 03:53:21;;;;;;;4.35;0.80;;;;;;;8.80;nan;102631.59;5030638;28;20049;-44
2023/02/04 03:55:48;;;;;;;7.78;1.00;;;;;;;8.79;83.18;102634.63;5029934;28;20075;-45
2023/02/04 03:58:15;;;;;;;5.80;0.73;;;;;;;8.80;82.78;102634.34;5030272;28;20047;-46
2023/02/04 04:00:42;;;;;;;3.40;1.17;;;;;;;8.79;82.97;102638.19;5029943;28;20051;-47
2023/02/04 04:03:09;;;;;;;3.65;1.02;;;;;;;8.80;82.75;102644.56;5030394;28;20041;-45
2023/02/04 04:05:36;;;;;;;2.38;1.17;;;;;;;8.79;82.76;102638.19;5030440;28;20050;-50
2023/02/04 04:08:03;;;;;;;2.10;0.77;;;;;;;8.78;82.61;102636.56;5030862;28;20048;-45
2023/02/04 04:10:29;;;;;;;3.90;0.75;;;;;;;8.79;82.55;102637.41;5030492;28;20041;-45
2023/02/04 04:12:57;;;;;;;4.07;0.82;;;;;;;8.79;82.36;102638.19;5028710;28;20121;-45
2023/02/04 04:15:23;;;;;;;3.15;0.75;;;;;;;8.78;82.13;102627.47;5029632;28;20487;-49
2023/02/04 04:17:50;;;;;;;7.15;1.00;;;;;;;8.77;82.08;102618.34;5030574;28;20037;-44
2023/02/04 04:20:17;;;;;;;3.05;0.90;;;;;;;8.74;81.86;102616.16;5030141;28;20045;-44
2023/02/04 04:22:44;;;;;;;1.98;0.80;;;;;;;8.75;81.77;102619.75;5029828;28;20487;-45
2023/02/04 04:25:11;;;;;;;5.28;1.00;;;;;;;8.76;81.76;102632.44;5030502;28;20046;-45
2023/02/04 04:27:38;;;;;;;4.95;0.95;;;;;;;8.74;81.51;102618.91;5029715;28;20120;-45
2023/02/04 04:30:05;;;;;;;6.22;0.88;;;;;;;8.73;81.46;102614.53;5029470;28;20056;-44
2023/02/04 04:32:31;;;;;;;3.08;0.63;;;;;;;8.72;81.22;102615.63;5029687;28;20060;-45
2023/02/04 04:34:58;;;;;;;4.57;1.02;;;;;;;8.73;81.20;102616.44;5041656;28;20052;-45
2023/02/04 04:37:25;;;;;;;2.97;0.82;;;;;;;8.74;81.17;102621.66;5029630;28;20069;-44
2023/02/04 04:39:51;;;;;;;2.33;0.85;;;;;;;8.74;81.14;102626.38;5029424;28;20037;-44
2023/02/04 04:42:18;;;;;;;4.22;0.73;;;;;;;8.74;81.12;102629.13;5030023;28;20038;-45
2023/02/04 04:44:45;;;;;;;8.98;0.82;;;;;;;8.73;81.02;102625.56;5028784;28;20135;-44
2023/02/04 04:47:11;;;;;;;4.63;0.90;;;;;;;8.74;80.85;102618.91;5020998;28;20053;-49
2023/02/04 04:49:38;;;;;;;2.47;0.50;;;;;;;8.73;80.82;102622.81;5029273;28;20041;-44
2023/02/04 04:52:05;;;;;;;3.22;0.80;;;;;;;8.75;80.76;102633.56;5029282;28;20065;-44
2023/02/04 04:54:32;;;;;;;5.85;0.73;;;;;;;8.74;80.91;102626.38;5029407;28;20049;-45
2023/02/04 04:56:58;;;;;;;3.97;0.70;;;;;;;8.74;80.93;102629.97;5029093;28;20052;-46
2023/02/04 04:59:25;;;;;;;5.70;1.67;;;;;;;8.74;80.79;102624.44;5029565;28;20453;-44
2023/02/04 05:01:52;;;;;;;4.20;0.60;;;;;;;8.73;80.73;102622.81;5028706;28;20522;-44
2023/02/04 05:04:19;;;;;;;2.40;0.75;;;;;;;8.74;80.83;102635.47;5029320;28;20053;-45
2023/02/04 05:06:46;;;;;;;1.85;0.80;;;;;;;8.72;80.88;102637.72;5029011;28;20079;-44
2023/02/04 05:09:15;;;;;;;2.00;0.80;;;;;;;8.72;80.87;102640.47;5028990;28;20825;-45
2023/02/04 05:11:42;;;;;;;2.25;0.60;;;;;;;8.71;80.67;102638.00;5027886;28;20060;-45
2023/02/04 05:14:08;;;;;;;11.40;1.92;;;;;;;8.69;80.56;102638.28;5015709;28;20052;-44
2023/02/04 05:16:35;;;;;;;3.45;0.80;;;;;;;8.70;80.56;102639.94;5029331;28;20140;-45
2023/02/04 05:19:02;;;;;;;2.83;0.50;;;;;;;8.70;80.44;102633.59;5027713;28;20735;-44
2023/02/04 05:21:29;;;;;;;3.63;0.50;;;;;;;8.68;80.37;102639.41;5028856;28;20068;-44
2023/02/04 05:23:55;;;;;;;4.20;0.47;;;;;;;8.69;80.37;102649.31;5029062;28;20034;-45
2023/02/04 05:26:22;;;;;;;6.00;2.10;;;;;;;8.70;80.47;102644.63;5029298;28;20049;-44
2023/02/04 05:28:56;;;;;;;7.82;1.55;;;;;;;8.70;80.28;102648.22;5029207;28;20042;-49
2023/02/04 05:31:23;;;;;;;4.97;1.58;;;;;;;8.70;80.19;102644.63;5028615;28;20033;-45
2023/02/04 05:33:50;;;;;;;6.40;1.08;;;;;;;8.68;80.33;102653.22;5034974;28;20053;-44
2023/02/04 05:36:17;;;;;;;1.60;0.80;;;;;;;8.66;80.28;102644.38;5033177;28;20107;-44
2023/02/04 05:38:44;;;;;;;4.18;0.82;;;;;;;8.67;80.28;102646.03;5029135;28;20144;-48
2023/02/04 05:41:11;;;;;;;1.33;0.90;;;;;;;8.67;80.38;102640.50;5028778;28;20045;-44
2023/02/04 05:43:38;;;;;;;3.92;0.88;;;;;;;8.66;80.24;102641.59;5028796;28;20065;-44
2023/02/04 05:46:05;;;;;;;3.20;0.85;;;;;;;8.68;80.23;102642.16;5020979;28;20060;-44
2023/02/04 05:48:32;;;;;;;2.92;0.80;;;;;;;8.67;80.26;102636.91;5028713;28;20042;-46
2023/02/04 05:50:58;;;;;;;4.03;0.70;;;;;;;8.66;80.27;102636.09;5029032;28;20136;-44
2023/02/04 05:53:25;;;;;;;3.03;0.65;;;;;;;8.64;80.21;102631.97;5028972;28;20563;-44
2023/02/04 05:55:52;;;;;;;1.92;1.00;;;;;;;8.64;80.21;102635.56;5028723;28;20387;-44
2023/02/04 05:58:18;;;;;;;2.92;0.70;;;;;;;8.63;80.18;102633.91;5028473;28;20092;-45
2023/02/04 06:00:45;;;;;;;8.65;1.10;;;;;;;8.64;80.17;102630.03;5031730;28;20522;-44
2023/02/04 06:03:13;;;;;;;5.00;1.60;;;;;;;8.65;80.01;102636.38;5032412;28;20449;-44
2023/02/04 06:05:40;;;;;;;1.30;0.68;;;;;;;8.63;80.21;102620.09;5032511;28;20418;-52
2023/02/04 06:08:07;;;;;;;2.00;0.50;;;;;;;8.63;80.18;102625.59;5032856;28;20045;-44
2023/02/04 06:10:33;;;;;;;1.98;0.55;;;;;;;8.65;80.15;102633.63;5032511;28;20053;-45
2023/02/04 06:13:00;;;;;;;4.28;0.60;;;;;;;8.64;79.73;102627.28;5032164;28;20045;-48
2023/02/04 06:15:26;;;;;;;6.03;0.82;;;;;;;8.63;80.03;102622.84;5032128;28;20590;-44
2023/02/04 06:17:53;;;;;;;4.72;0.75;;;;;;;8.64;80.05;102618.16;5032311;28;20057;-48
2023/02/04 06:20:20;;;;;;;4.22;1.65;;;;;;;8.65;79.96;102628.09;5032316;28;20045;-45
2023/02/04 06:22:50;;;;;;;0.82;0.60;;;;;;;8.64;79.98;102621.75;5032140;28;20050;-44
2023/02/04 06:25:17;;;;;;;6.35;2.65;;;;;;;8.64;80.01;102630.03;5032178;28;20510;-44
2023/02/04 06:27:44;;;;;;;5.70;0.98;;;;;;;8.64;80.19;102629.19;5032095;28;20046;-45
2023/02/04 06:30:12;;;;;;;1.77;0.63;;;;;;;8.64;80.00;102630.03;5032365;28;20506;-44
2023/02/04 06:32:39;;;;;;;1.95;1.13;;;;;;;8.63;79.92;102617.31;5031838;28;20045;-44
2023/02/04 06:35:06;;;;;;;3.30;0.57;;;;;;;8.63;79.94;102622.84;5042647;28;20055;-43
2023/02/04 06:37:32;;;;;;;2.20;0.75;;;;;;;8.63;80.06;102622.84;5031858;28;20053;-43
2023/02/04 06:39:59;;;;;;;2.63;0.90;;;;;;;8.63;79.72;102628.38;5018689;28;20041;-49
2023/02/04 06:42:26;;;;;;;6.32;2.13;;;;;;;8.64;79.70;102624.50;5032338;28;20132;-47
2023/02/04 06:44:52;;;;;;;2.10;0.55;;;;;;;8.63;79.99;102624.81;5029819;28;20048;-43
2023/02/04 06:47:19;;;;;;;4.50;1.23;;;;;;;8.63;79.94;102627.56;5025382;28;20052;-44
2023/02/04 06:49:48;;;;;;;2.20;0.70;;;;;;;8.63;79.87;102630.34;5032236;28;20056;-46
2023/02/04 06:52:15;;;;;;;9.05;1.00;;;;;;;8.63;79.86;102628.38;5031855;28;20149;-44
2023/02/04 06:54:41;;;;;;;2.90;0.82;;;;;;;8.62;79.90;102628.66;5031664;28;20046;-45
2023/02/04 06:57:08;;;;;;;3.42;1.00;;;;;;;8.60;79.95;102623.44;5032099;28;20053;-43
2023/02/04 06:59:40;;;;;;;4.03;0.60;;;;;;;8.61;80.05;102622.31;5032432;28;20426;-45
2023/02/04 07:02:07;;;;;;;4.32;0.70;;;;;;;8.62;80.08;102625.91;5031532;28;20064;-44
2023/02/04 07:04:34;;;;;;;5.47;0.68;;;;;;;8.61;79.95;102625.09;5031265;28;20454;-46
2023/02/04 07:07:00;;;;;;;3.20;0.60;;;;;;;8.62;79.95;102632.25;5031161;28;20360;-44
2023/02/04 07:09:27;;;;;;;1.25;0.57;;;;;;;8.62;80.15;102621.22;5031489;28;20056;-43
2023/02/04 07:11:54;;;;;;;2.80;0.82;;;;;;;8.62;80.10;102625.91;5030343;28;20052;-44
2023/02/04 07:14:21;;;;;;;9.52;0.90;;;;;;;8.62;80.05;102625.91;5030983;28;20045;-43
2023/02/04 07:16:47;;;;;;;8.40;1.50;;;;;;;8.62;80.15;102617.63;5034057;28;20060;-44
2023/02/04 07:19:14;;;;;;;3.30;0.82;;;;;;;8.61;80.09;102621.50;5031076;28;20049;-46
2023/02/04 07:21:41;;;;;;;5.85;1.05;;;;;;;8.60;80.14;102612.41;5031466;28;20290;-44
2023/02/04 07:24:07;;;;;;;2.83;0.68;;;;;;;8.60;80.18;102617.94;5030714;28;20049;-45
2023/02/04 07:26:34;;;;;;;3.40;0.95;;;;;;;8.61;80.26;102614.03;5031096;28;20056;-47
2023/02/04 07:29:01;;;;;;;2.83;0.90;;;;;;;8.61;80.43;102613.19;5030509;28;20136;-43
2023/02/04 07:31:27;;;;;;;5.72;1.15;;;;;;;8.61;80.21;102619.56;5031257;28;20061;-45
2023/02/04 07:33:54;;;;;;;2.97;0.57;;;;;;;8.60;80.34;102609.66;5038211;28;20446;-44
2023/02/04 07:36:21;;;;;;;3.85;0.93;;;;;;;8.59;80.36;102616.25;5034499;28;20402;-43
2023/02/04 07:38:48;;;;;;;9.50;2.15;;;;;;;8.60;80.38;102612.41;5030460;28;20045;-43
2023/02/04 07:41:14;;;;;;;4.53;1.13;;;;;;;8.60;80.38;102617.94;5030677;28;20054;-44
2023/02/04 07:43:41;;;;;;;2.53;1.08;;;;;;;8.61;80.29;102619.56;5030481;28;20080;-49
2023/02/04 07:46:08;;;;;;;8.88;0.98;;;;;;;8.62;80.47;102621.22;5021210;28;20050;-44
2023/02/04 07:48:35;;;;;;;4.32;0.80;;;;;;;8.62;80.46;102615.69;5030795;28;20410;-47
2023/02/04 07:51:02;;;;;;;4.63;0.95;;;;;;;8.63;80.56;102622.06;5030435;28;20041;-46
2023/02/04 07:53:28;;;;;;;5.05;0.85;;;;;;;8.64;80.49;102618.16;5029427;28;20084;-44
2023/02/04 07:55:55;;;;;;;3.67;0.93;;;;;;;8.64;80.53;102620.91;5029800;28;20045;-45
2023/02/04 07:58:22;;;;;;;6.82;0.90;;;;;;;8.65;80.52;102625.34;5030185;28;20041;-44
2023/02/04 08:00:48;;;;;;;5.43;1.33;;;;;;;8.66;80.57;102625.03;5030391;28;20049;-47
2023/02/04 08:03:15;;;;;;;11.20;1.85;;;;;;;8.65;80.46;102622.59;5030177;28;20061;-44
2023/02/04 08:05:42;;;;;;;5.60;0.90;;;;;;;8.68;80.62;102633.06;5030329;28;20037;-50
2023/02/04 08:08:09;;;;;;;5.63;1.83;;;;;;;8.68;80.67;102633.88;5030112;28;20077;-43
2023/02/04 08:10:36;;;;;;;2.90;0.80;;;;;;;8.67;80.67;102634.16;5030404;28;20056;-43
2023/02/04 08:13:03;;;;;;;5.65;0.93;;;;;;;8.68;80.54;102639.41;5027865;28;20053;-43
2023/02/04 08:15:29;;;;;;;1.48;0.77;;;;;;;8.68;80.56;102649.63;5030042;28;20128;-46
2023/02/04 08:17:56;;;;;;;4.05;0.50;;;;;;;8.70;80.66;102662.03;5029896;28;20103;-43
2023/02/04 08:20:23;;;;;;;2.40;0.75;;;;;;;8.70;80.60;102653.75;5025145;28;20115;-45
2023/02/04 08:22:49;;;;;;;7.63;1.40;;;;;;;8.70;80.67;102645.47;5029615;28;20041;-43
2023/02/04 08:25:16;;;;;;;4.18;0.93;;;;;;;8.71;80.72;102654.56;5029783;28;20045;-46
2023/02/04 08:27:43;;;;;;;3.60;0.70;;;;;;;8.71;80.66;102649.84;5029334;28;20045;-43
2023/02/04 08:30:10;;;;;;;4.40;0.68;;;;;;;8.72;80.69;102643.22;5029806;28;20092;-43
2023/02/04 08:32:38;;;;;;;3.47;0.70;;;;;;;8.71;80.65;102641.56;5029728;28;20049;-43
2023/02/04 08:35:06;;;;;;;5.15;0.63;;;;;;;8.71;80.68;102652.63;5035794;28;20064;-43
2023/02/04 08:37:32;;;;;;;4.65;1.02;;;;;;;8.73;80.60;102644.06;5029830;28;20045;-42
2023/02/04 08:39:59;;;;;;;4.13;0.68;;;;;;;8.74;80.64;102646.53;5030240;28;20049;-43
2023/02/04 08:42:28;;;;;;;2.33;0.60;;;;;;;8.75;80.59;102645.44;5029493;28;20042;-43
2023/02/04 08:44:54;;;;;;;2.88;1.00;;;;;;;8.75;80.81;102652.88;5027594;28;20402;-43
2023/02/04 08:47:21;;;;;;;4.65;0.98;;;;;;;8.75;80.79;102664.75;5027898;28;20124;-44
2023/02/04 08:49:48;;;;;;;38.25;3.47;;;;;;;8.76;80.93;102665.59;5029629;28;20099;-45
2023/02/04 08:52:14;;;;;;;6.93;0.60;;;;;;;8.76;80.99;102669.19;5029595;28;20064;-44
2023/02/04 08:54:41;;;;;;;5.55;1.75;;;;;;;8.76;81.22;102663.66;5029486;28;20045;-43
2023/02/04 08:57:07;;;;;;;3.40;0.52;;;;;;;8.76;81.24;102666.41;5034546;28;20056;-43
2023/02/04 08:59:34;;;;;;;5.35;1.00;;;;;;;8.77;81.27;102673.56;5036386;28;20084;-48
2023/02/04 09:02:01;;;;;;;4.57;0.70;;;;;;;8.77;81.40;102659.75;5028046;28;20459;-43
2023/02/04 09:04:28;;;;;;;5.97;1.25;;;;;;;8.79;81.62;102679.63;5029163;28;20053;-43
2023/02/04 09:06:55;;;;;;;4.53;2.40;;;;;;;8.82;81.71;102686.50;5028728;28;20041;-43
2023/02/04 09:09:22;;;;;;;3.67;1.48;;;;;;;8.83;81.72;102689.00;5029661;28;20376;-43
2023/02/04 09:11:51;;;;;;;2.25;0.60;;;;;;;8.83;81.84;102694.53;5029405;28;20039;-43
2023/02/04 09:14:18;;;;;;;4.63;1.02;;;;;;;8.84;81.90;102696.16;5029331;28;20049;-44
2023/02/04 09:16:44;;;;;;;6.00;1.00;;;;;;;8.84;81.92;102698.94;5027112;28;20588;-43
2023/02/04 09:19:15;;;;;;;6.65;1.00;;;;;;;8.85;82.16;102697.81;5029018;28;20046;-43
2023/02/04 09:21:41;;;;;;;3.78;0.82;;;;;;;8.85;82.23;102711.63;5028631;28;20136;-46
2023/02/04 09:24:08;;;;;;;4.45;0.98;;;;;;;8.87;82.44;102717.69;5029021;28;20038;-43
2023/02/04 09:26:34;;;;;;;3.30;0.80;;;;;;;8.86;82.62;102716.06;5027610;28;20034;-45
2023/02/04 09:29:01;;;;;;;6.60;1.17;;;;;;;8.86;82.74;102709.72;5027240;28;20053;-43
2023/02/04 09:31:28;;;;;;;5.35;0.90;;;;;;;8.85;82.96;102695.06;5028614;28;20038;-44
2023/02/04 09:33:55;;;;;;;4.28;1.05;;;;;;;8.85;83.20;102697.00;5027874;28;20076;-45
2023/02/04 09:36:22;;;;;;;3.20;1.25;;;;;;;8.86;83.31;102699.50;5024182;28;20060;-43
2023/02/04 09:38:48;;;;;;;3.55;1.00;;;;;;;8.87;83.36;102697.56;5028809;28;20136;-43
2023/02/04 09:41:15;;;;;;;4.22;1.02;;;;;;;8.85;83.55;102697.81;5028240;28;20484;-43
2023/02/04 09:43:44;;;;;;;3.90;1.08;;;;;;;8.87;83.91;102701.13;5028562;28;20046;-43
2023/02/04 09:46:20;;;;;;;6.50;1.17;;;;;;;8.87;84.00;102700.31;5027102;28;20049;-43
2023/02/04 09:48:48;;;;;;;5.55;1.40;;;;;;;8.90;83.95;102703.31;5028518;28;20052;-43
2023/02/04 09:51:21;;;;;;;7.07;0.85;;;;;;;8.97;83.96;102705.78;5028744;28;20053;-43
2023/02/04 09:53:49;;;;;;;5.82;1.20;;;;;;;9.09;84.09;102707.06;5028593;28;20033;-43
2023/02/04 09:56:16;;;;;;;6.25;0.80;;;;;;;9.22;83.75;102710.25;5028917;28;20037;-44
2023/02/04 09:58:43;;;;;;;3.25;0.95;;;;;;;9.34;83.54;102713.50;5028299;28;20052;-43
2023/02/04 10:01:18;;;;;;;4.50;1.00;;;;;;;9.38;83.46;102718.16;5028089;28;20041;-48
2023/02/04 10:03:47;;;;;;;8.23;1.10;;;;;;;9.39;83.44;102707.94;5028604;28;20041;-43
2023/02/04 10:06:16;;;;;;;13.30;3.10;;;;;;;9.39;83.58;102699.63;5028776;28;20033;-45
2023/02/04 10:08:43;;;;;;;6.80;1.38;;;;;;;9.40;83.58;102698.53;5028409;28;20156;-43
2023/02/04 10:11:12;;;;;;;1.98;0.90;;;;;;;9.40;83.63;102699.31;5028314;28;20141;-43
2023/02/04 10:13:49;;;;;;;2.00;0.80;;;;;;;9.40;83.56;102704.06;5028312;28;20085;-43
2023/02/04 10:16:28;;;;;;;7.80;2.88;;;;;;;9.37;83.47;102699.91;5028199;28;20116;-43
2023/02/04 10:18:57;;;;;;;6.47;1.33;;;;;;;9.37;83.77;102704.63;5027864;28;20048;-44
2023/02/04 10:21:31;;;;;;;3.67;0.90;;;;;;;9.36;83.81;102712.09;5028768;28;20049;-43
2023/02/04 10:24:01;;;;;;;2.63;0.98;;;;;;;9.38;83.62;102706.25;5039968;28;20526;-44
2023/02/04 10:26:30;;;;;;;6.03;1.17;;;;;;;9.37;83.67;102710.97;5027948;28;20059;-45
2023/02/04 10:29:05;;;;;;;4.78;1.10;;;;;;;9.37;83.60;102715.69;5027910;28;20372;-45
2023/02/04 10:31:37;;;;;;;5.18;0.90;;;;;;;9.37;83.70;102718.47;5028050;28;20375;-50
2023/02/04 10:34:31;;;;;;;2.13;0.93;;;;;;;9.36;83.76;102714.03;5037155;28;20083;-44
2023/02/04 10:36:58;;;;;;;3.08;0.95;;;;;;;9.38;83.67;102717.31;5015751;28;20050;-45
2023/02/04 10:39:28;;;;;;;7.50;1.33;;;;;;;9.40;83.64;102721.44;5028531;28;20056;-44
2023/02/04 10:41:58;;;;;;;1.33;0.90;;;;;;;9.43;83.65;102720.88;5027588;28;20053;-44
2023/02/04 10:44:31;;;;;;;6.68;1.75;;;;;;;9.46;83.72;102719.47;5027684;28;20333;-45
2023/02/04 10:47:21;;;;;;;4.28;0.93;;;;;;;9.48;83.68;102722.75;5022368;28;20068;-45
2023/02/04 10:49:52;;;;;;;3.05;1.00;;;;;;;9.50;83.72;102726.09;5031584;28;20049;-44
2023/02/04 10:52:21;;;;;;;5.85;1.52;;;;;;;9.53;83.91;102726.31;5031663;28;20046;-44
2023/02/04 10:54:48;;;;;;;5.05;1.52;;;;;;;9.54;83.63;102727.97;5031824;28;20045;-44
2023/02/04 10:57:25;;;;;;;4.07;1.20;;;;;;;9.60;83.93;102723.22;5043998;28;20049;-48
2023/02/04 10:59:55;;;;;;;4.25;1.15;;;;;;;9.63;83.80;102725.41;5031290;28;20045;-44
2023/02/04 11:02:41;;;;;;;2.95;0.98;;;;;;;9.68;83.96;102728.13;5030465;28;20060;-50
2023/02/04 11:05:20;;;;;;;5.53;0.80;;;;;;;9.74;83.82;102715.91;5031464;28;20470;-45
2023/02/04 11:07:48;;;;;;;8.82;1.30;;;;;;;9.81;83.95;102727.44;5030947;28;20053;-49
2023/02/04 11:10:18;;;;;;;3.53;0.93;;;;;;;9.88;83.80;102722.38;5031330;28;20055;-45
2023/02/04 11:12:58;;;;;;;5.03;1.10;;;;;;;9.95;83.87;102720.13;5030370;28;20052;-46
2023/02/04 11:15:49;;;;;;;3.22;0.73;;;;;;;9.99;83.73;102726.69;5031277;28;20076;-44
2023/02/04 11:18:19;;;;;;;5.32;0.80;;;;;;;10.05;83.81;102714.47;5031257;28;20045;-42
2023/02/04 11:20:48;;;;;;;3.50;1.45;;;;;;;10.09;83.61;102722.97;5031077;28;20048;-45
2023/02/04 11:23:24;;;;;;;4.85;2.25;;;;;;;10.12;83.41;102726.03;5030825;28;20068;-44
2023/02/04 11:26:12;;;;;;;5.95;0.60;;;;;;;10.17;83.39;102725.97;5030875;28;20958;-44
2023/02/04 11:28:48;;;;;;;6.40;0.80;;;;;;;10.21;83.26;102721.50;5030759;28;20053;-45
2023/02/04 11:31:20;;;;;;;4.25;1.00;;;;;;;10.23;83.36;102727.56;5038771;28;20124;-47
2023/02/04 11:33:49;;;;;;;2.30;0.80;;;;;;;10.24;83.08;102729.22;5037186;28;20534;-44
2023/02/04 11:36:16;;;;;;;5.53;1.02;;;;;;;10.24;82.88;102718.16;5034937;28;20050;-44
2023/02/04 11:38:49;;;;;;;4.07;1.30;;;;;;;10.22;82.70;102720.38;5030960;28;20045;-44